Ursa Minor — ICGH — position and weather

sailwx.info

Track history (hours):
 
Tides and Currents Weather Stations Pressure Air Temp Water Temp Dewpoint Dewpoint Depression Visibility Wind Speed Wind Dir Waves Ship Positions

Ursa Minor

Last reported at 2016-May-02 14:04 UTC. Time now 2016-May-05 10:27 UTC.
Position N 37°53' E 015°47'.

Length 205 m; draft 8.4 m.

Type: Ship. MMSI: 247082300.

Date/timePositionNaut miles runAvg speedWind from/ knotsBaromVisibWave heightAir tempDewpointWater temp
2016-May-02 14:04N 37°53' E 015°47'612.0
2016-May-02 13:33N 37°56' E 015°40'1212.4
2016-May-02 12:34N 38°07' E 015°35'1010.3
2016-May-02 11:33N 38°17' E 015°40'1111.1
2016-May-02 10:33N 38°28' E 015°38'1211.9
2016-May-02 09:33N 38°40' E 015°34'1211.7
2016-May-02 08:31N 38°51' E 015°30'37011.6
2016-May-01 00:33N 43°27' E 010°03'1212.3
2016-Apr-30 23:33N 43°36' E 009°53'1212.2
2016-Apr-30 22:34N 43°46' E 009°42'1212.1
2016-Apr-30 21:34N 43°54' E 009°30'1212.0
2016-Apr-30 20:34N 44°03' E 009°19'1211.8
2016-Apr-30 19:33N 44°12' E 009°08'1211.6
2016-Apr-30 18:33N 44°21' E 008°57'5 5.3
2016-Apr-30 17:33N 44°24' E 008°52'0 0.0
2016-Apr-30 16:33N 44°24' E 008°52'0 0.0
2016-Apr-30 15:33N 44°24' E 008°52'0 0.0
2016-Apr-30 14:34N 44°24' E 008°52'0 0.0
2016-Apr-30 13:34N 44°24' E 008°52'0 0.0
2016-Apr-30 12:33N 44°24' E 008°52'0 0.2
2016-Apr-30 11:33N 44°24' E 008°52'5 4.9
2016-Apr-30 10:33N 44°22' E 008°58'9 8.9
2016-Apr-30 09:34N 44°15' E 009°06'1212.0
2016-Apr-30 08:34N 44°06' E 009°17'1211.8
2016-Apr-30 07:34N 43°57' E 009°28'1211.8
2016-Apr-30 06:34N 43°48' E 009°39'1212.3
2016-Apr-30 05:34N 43°39' E 009°50'1212.2
2016-Apr-30 04:34N 43°30' E 010°01'1212.3
2016-Apr-30 03:34N 43°19' E 010°09'1212.3
2016-Apr-30 02:34N 43°08' E 010°17'1212.4
2016-Apr-30 01:33N 42°57' E 010°26'1212.2
2016-Apr-30 00:33N 42°47' E 010°35'1212.0
2016-Apr-29 23:34N 42°38' E 010°44'1212.0
2016-Apr-29 22:33N 42°28' E 010°55'13412.0
2016-Apr-29 11:20N 41°01' E 013°11'912.1
2016-Apr-29 10:33N 40°55' E 013°21'1212.0
2016-Apr-29 09:33N 40°49' E 013°35'1412.3
2016-Apr-29 08:27N 40°40' E 013°48'1112.3
2016-Apr-29 07:33N 40°33' E 013°59'1212.2
2016-Apr-29 06:32N 40°23' E 014°09'13012.5
2016-Apr-28 20:08N 38°31' E 015°33'711.9
2016-Apr-28 19:33N 38°25' E 015°39'1010.3
2016-Apr-28 18:34N 38°15' E 015°40'1010.3
2016-Apr-28 17:33N 38°05' E 015°36'1110.8
2016-Apr-28 16:34N 37°55' E 015°41'1311.9
2016-Apr-28 15:28N 37°53' E 015°57'  
2016-Apr-25 04:10N 37°52' E 015°59'912.2
2016-Apr-25 03:25N 37°53' E 015°47'1012.0
2016-Apr-25 02:33N 37°59' E 015°37'1313.0
2016-Apr-25 01:34N 38°12' E 015°35'1110.8
2016-Apr-25 00:33N 38°22' E 015°42'1010.4
2016-Apr-24 23:33N 38°32' E 015°43'15411.0
2016-Apr-24 09:31N 40°39' E 013°50'1212.2
2016-Apr-24 08:33N 40°46' E 013°37'1212.2
2016-Apr-24 07:33N 40°53' E 013°25'21511.9
2016-Apr-23 13:32N 43°28' E 010°03'1211.9
2016-Apr-23 12:33N 43°37' E 009°53'1211.8
2016-Apr-23 11:33N 43°46' E 009°42'1211.6
2016-Apr-23 10:33N 43°54' E 009°31'1211.6
2016-Apr-23 09:33N 44°03' E 009°20'1211.6
2016-Apr-23 08:33N 44°11' E 009°09'1211.6
2016-Apr-23 07:33N 44°20' E 008°58'6 6.4
2016-Apr-23 06:33N 44°24' E 008°52'0 0.0
2016-Apr-23 05:33N 44°24' E 008°52'0 0.0
2016-Apr-23 04:33N 44°24' E 008°52'0 0.0
2016-Apr-23 03:33N 44°24' E 008°52'0 0.0
2016-Apr-23 02:33N 44°24' E 008°52'0 0.0
2016-Apr-23 01:33N 44°24' E 008°52'0 0.2
2016-Apr-23 00:33N 44°24' E 008°52'0 0.3
2016-Apr-22 23:33N 44°24' E 008°53'7 7.2
2016-Apr-22 22:33N 44°19' E 009°00'1212.3
2016-Apr-22 21:33N 44°10' E 009°11'1313.1
2016-Apr-22 20:33N 44°00' E 009°24'1313.1
2016-Apr-22 19:33N 43°50' E 009°36'1313.1
2016-Apr-22 18:33N 43°40' E 009°47'1312.7
2016-Apr-22 17:33N 43°31' E 009°59'1312.6
2016-Apr-22 16:33N 43°20' E 010°08'1312.6
2016-Apr-22 15:33N 43°09' E 010°16'1412.6
2016-Apr-22 14:26N 42°57' E 010°26'  
Track history (hours):
 
Tides and Currents Weather Stations Pressure Air Temp Water Temp Dewpoint Dewpoint Depression Visibility Wind Speed Wind Dir Waves Ship Positions

Ursa Minor

Last reported at 2016-May-02 14:04 UTC. Time now 2016-May-05 10:27 UTC.
Position N 37°53' E 015°47'.

Length 205 m; draft 8.4 m.

Type: Ship. MMSI: 247082300.

Date/timePositionNaut miles runAvg speedWind from/ knotsBaromVisibWave heightAir tempDewpointWater temp
2016-May-02 14:04N 37°53' E 015°47'612.0
2016-May-02 13:33N 37°56' E 015°40'1212.4
2016-May-02 12:34N 38°07' E 015°35'1010.3
2016-May-02 11:33N 38°17' E 015°40'1111.1
2016-May-02 10:33N 38°28' E 015°38'1211.9
2016-May-02 09:33N 38°40' E 015°34'1211.7
2016-May-02 08:31N 38°51' E 015°30'37011.6
2016-May-01 00:33N 43°27' E 010°03'1212.3
2016-Apr-30 23:33N 43°36' E 009°53'1212.2
2016-Apr-30 22:34N 43°46' E 009°42'1212.1
2016-Apr-30 21:34N 43°54' E 009°30'1212.0
2016-Apr-30 20:34N 44°03' E 009°19'1211.8
2016-Apr-30 19:33N 44°12' E 009°08'1211.6
2016-Apr-30 18:33N 44°21' E 008°57'5 5.3
2016-Apr-30 17:33N 44°24' E 008°52'0 0.0
2016-Apr-30 16:33N 44°24' E 008°52'0 0.0
2016-Apr-30 15:33N 44°24' E 008°52'0 0.0
2016-Apr-30 14:34N 44°24' E 008°52'0 0.0
2016-Apr-30 13:34N 44°24' E 008°52'0 0.0
2016-Apr-30 12:33N 44°24' E 008°52'0 0.2
2016-Apr-30 11:33N 44°24' E 008°52'5 4.9
2016-Apr-30 10:33N 44°22' E 008°58'9 8.9
2016-Apr-30 09:34N 44°15' E 009°06'1212.0
2016-Apr-30 08:34N 44°06' E 009°17'1211.8
2016-Apr-30 07:34N 43°57' E 009°28'1211.8
2016-Apr-30 06:34N 43°48' E 009°39'1212.3
2016-Apr-30 05:34N 43°39' E 009°50'1212.2
2016-Apr-30 04:34N 43°30' E 010°01'1212.3
2016-Apr-30 03:34N 43°19' E 010°09'1212.3
2016-Apr-30 02:34N 43°08' E 010°17'1212.4
2016-Apr-30 01:33N 42°57' E 010°26'1212.2
2016-Apr-30 00:33N 42°47' E 010°35'1212.0
2016-Apr-29 23:34N 42°38' E 010°44'1212.0
2016-Apr-29 22:33N 42°28' E 010°55'13412.0
2016-Apr-29 11:20N 41°01' E 013°11'912.1
2016-Apr-29 10:33N 40°55' E 013°21'1212.0
2016-Apr-29 09:33N 40°49' E 013°35'1412.3
2016-Apr-29 08:27N 40°40' E 013°48'1112.3
2016-Apr-29 07:33N 40°33' E 013°59'1212.2
2016-Apr-29 06:32N 40°23' E 014°09'13012.5
2016-Apr-28 20:08N 38°31' E 015°33'711.9
2016-Apr-28 19:33N 38°25' E 015°39'1010.3
2016-Apr-28 18:34N 38°15' E 015°40'1010.3
2016-Apr-28 17:33N 38°05' E 015°36'1110.8
2016-Apr-28 16:34N 37°55' E 015°41'1311.9
2016-Apr-28 15:28N 37°53' E 015°57'  
2016-Apr-25 04:10N 37°52' E 015°59'912.2
2016-Apr-25 03:25N 37°53' E 015°47'1012.0
2016-Apr-25 02:33N 37°59' E 015°37'1313.0
2016-Apr-25 01:34N 38°12' E 015°35'1110.8
2016-Apr-25 00:33N 38°22' E 015°42'1010.4
2016-Apr-24 23:33N 38°32' E 015°43'15411.0
2016-Apr-24 09:31N 40°39' E 013°50'1212.2
2016-Apr-24 08:33N 40°46' E 013°37'1212.2
2016-Apr-24 07:33N 40°53' E 013°25'21511.9
2016-Apr-23 13:32N 43°28' E 010°03'1211.9
2016-Apr-23 12:33N 43°37' E 009°53'1211.8
2016-Apr-23 11:33N 43°46' E 009°42'1211.6
2016-Apr-23 10:33N 43°54' E 009°31'1211.6
2016-Apr-23 09:33N 44°03' E 009°20'1211.6
2016-Apr-23 08:33N 44°11' E 009°09'1211.6
2016-Apr-23 07:33N 44°20' E 008°58'6 6.4
2016-Apr-23 06:33N 44°24' E 008°52'0 0.0
2016-Apr-23 05:33N 44°24' E 008°52'0 0.0
2016-Apr-23 04:33N 44°24' E 008°52'0 0.0
2016-Apr-23 03:33N 44°24' E 008°52'0 0.0
2016-Apr-23 02:33N 44°24' E 008°52'0 0.0
2016-Apr-23 01:33N 44°24' E 008°52'0 0.2
2016-Apr-23 00:33N 44°24' E 008°52'0 0.3
2016-Apr-22 23:33N 44°24' E 008°53'7 7.2
2016-Apr-22 22:33N 44°19' E 009°00'1212.3
2016-Apr-22 21:33N 44°10' E 009°11'1313.1
2016-Apr-22 20:33N 44°00' E 009°24'1313.1
2016-Apr-22 19:33N 43°50' E 009°36'1313.1
2016-Apr-22 18:33N 43°40' E 009°47'1312.7
2016-Apr-22 17:33N 43°31' E 009°59'1312.6
2016-Apr-22 16:33N 43°20' E 010°08'1312.6
2016-Apr-22 15:33N 43°09' E 010°16'1412.6
2016-Apr-22 14:26N 42°57' E 010°26'  

Dump ship's entire track history